sensor_id;sensor_type;location;lat;lon;timestamp;temperature;humidity
21085;DHT22;34247;50.064;19.970;2023-02-15T00:01:07;21.80;26.00
21085;DHT22;34247;50.064;19.970;2023-02-15T00:02:12;21.80;26.00
21085;DHT22;34247;50.064;19.970;2023-02-15T00:03:16;21.80;26.50
21085;DHT22;34247;50.064;19.970;2023-02-15T00:04:23;21.80;25.90
21085;DHT22;34247;50.064;19.970;2023-02-15T00:05:48;21.80;25.90
21085;DHT22;34247;50.064;19.970;2023-02-15T00:06:52;21.80;26.00
21085;DHT22;34247;50.064;19.970;2023-02-15T00:07:56;21.80;25.90
21085;DHT22;34247;50.064;19.970;2023-02-15T00:09:00;21.80;26.30
21085;DHT22;34247;50.064;19.970;2023-02-15T00:10:09;21.80;25.80
21085;DHT22;34247;50.064;19.970;2023-02-15T00:11:16;21.80;25.80
21085;DHT22;34247;50.064;19.970;2023-02-15T00:12:43;21.80;25.80
21085;DHT22;34247;50.064;19.970;2023-02-15T00:13:48;21.80;25.90
21085;DHT22;34247;50.064;19.970;2023-02-15T00:14:55;21.80;25.90
21085;DHT22;34247;50.064;19.970;2023-02-15T00:16:03;21.80;26.00
21085;DHT22;34247;50.064;19.970;2023-02-15T00:17:12;21.80;25.90
21085;DHT22;34247;50.064;19.970;2023-02-15T00:18:16;21.80;25.90
21085;DHT22;34247;50.064;19.970;2023-02-15T00:19:21;21.80;25.90
21085;DHT22;34247;50.064;19.970;2023-02-15T00:20:25;21.80;25.90
21085;DHT22;34247;50.064;19.970;2023-02-15T00:21:33;21.80;25.90
21085;DHT22;34247;50.064;19.970;2023-02-15T00:22:37;21.80;25.90
21085;DHT22;34247;50.064;19.970;2023-02-15T00:23:42;21.80;25.80
21085;DHT22;34247;50.064;19.970;2023-02-15T00:24:45;21.80;25.80
21085;DHT22;34247;50.064;19.970;2023-02-15T00:25:49;21.80;25.90
21085;DHT22;34247;50.064;19.970;2023-02-15T00:26:53;21.80;25.90
21085;DHT22;34247;50.064;19.970;2023-02-15T00:27:57;21.70;25.90
21085;DHT22;34247;50.064;19.970;2023-02-15T00:29:03;21.70;25.90
21085;DHT22;34247;50.064;19.970;2023-02-15T00:30:10;21.70;25.80
21085;DHT22;34247;50.064;19.970;2023-02-15T00:31:14;21.70;25.90
21085;DHT22;34247;50.064;19.970;2023-02-15T00:32:19;21.70;25.90
21085;DHT22;34247;50.064;19.970;2023-02-15T00:33:24;21.70;25.90
21085;DHT22;34247;50.064;19.970;2023-02-15T00:34:29;21.70;25.90
21085;DHT22;34247;50.064;19.970;2023-02-15T00:35:32;21.70;25.90
21085;DHT22;34247;50.064;19.970;2023-02-15T00:36:38;21.70;26.00
21085;DHT22;34247;50.064;19.970;2023-02-15T00:37:42;21.70;25.90
21085;DHT22;34247;50.064;19.970;2023-02-15T00:38:47;21.70;26.00
21085;DHT22;34247;50.064;19.970;2023-02-15T00:39:50;21.70;26.00
21085;DHT22;34247;50.064;19.970;2023-02-15T00:40:58;21.70;26.00
21085;DHT22;34247;50.064;19.970;2023-02-15T00:42:10;21.70;26.00
21085;DHT22;34247;50.064;19.970;2023-02-15T00:43:18;21.80;26.40
21085;DHT22;34247;50.064;19.970;2023-02-15T00:44:22;21.80;25.80
21085;DHT22;34247;50.064;19.970;2023-02-15T00:45:25;21.80;25.80
21085;DHT22;34247;50.064;19.970;2023-02-15T00:46:30;21.80;25.80
21085;DHT22;34247;50.064;19.970;2023-02-15T00:47:34;21.80;25.80
21085;DHT22;34247;50.064;19.970;2023-02-15T00:48:37;21.80;25.80
21085;DHT22;34247;50.064;19.970;2023-02-15T00:49:41;21.80;25.80
21085;DHT22;34247;50.064;19.970;2023-02-15T00:50:53;21.70;25.80
21085;DHT22;34247;50.064;19.970;2023-02-15T00:51:59;21.70;25.80
21085;DHT22;34247;50.064;19.970;2023-02-15T00:53:02;21.70;25.90
21085;DHT22;34247;50.064;19.970;2023-02-15T00:54:11;21.70;25.90
21085;DHT22;34247;50.064;19.970;2023-02-15T00:55:24;21.70;26.00
21085;DHT22;34247;50.064;19.970;2023-02-15T00:56:28;21.70;25.90
21085;DHT22;34247;50.064;19.970;2023-02-15T00:57:31;21.70;26.00
21085;DHT22;34247;50.064;19.970;2023-02-15T00:58:35;21.70;25.90
21085;DHT22;34247;50.064;19.970;2023-02-15T00:59:40;21.70;26.00
21085;DHT22;34247;50.064;19.970;2023-02-15T01:00:47;21.70;25.90
21085;DHT22;34247;50.064;19.970;2023-02-15T01:01:51;21.70;25.90
21085;DHT22;34247;50.064;19.970;2023-02-15T01:02:55;21.70;25.90
21085;DHT22;34247;50.064;19.970;2023-02-15T01:03:59;21.70;25.90
21085;DHT22;34247;50.064;19.970;2023-02-15T01:05:03;21.70;26.00
21085;DHT22;34247;50.064;19.970;2023-02-15T01:06:10;21.70;26.00
21085;DHT22;34247;50.064;19.970;2023-02-15T01:07:14;21.60;26.00
21085;DHT22;34247;50.064;19.970;2023-02-15T01:08:18;21.60;26.00
21085;DHT22;34247;50.064;19.970;2023-02-15T01:09:21;21.60;26.00
21085;DHT22;34247;50.064;19.970;2023-02-15T01:10:26;21.60;26.00
21085;DHT22;34247;50.064;19.970;2023-02-15T01:11:31;21.60;26.10
21085;DHT22;34247;50.064;19.970;2023-02-15T01:12:34;21.60;26.10
21085;DHT22;34247;50.064;19.970;2023-02-15T01:13:38;21.60;26.10
21085;DHT22;34247;50.064;19.970;2023-02-15T01:14:47;21.60;26.10
21085;DHT22;34247;50.064;19.970;2023-02-15T01:15:55;21.60;26.10
21085;DHT22;34247;50.064;19.970;2023-02-15T01:16:58;21.60;26.10
21085;DHT22;34247;50.064;19.970;2023-02-15T01:18:02;21.60;26.10
21085;DHT22;34247;50.064;19.970;2023-02-15T01:19:12;21.60;26.10
21085;DHT22;34247;50.064;19.970;2023-02-15T01:20:17;21.60;26.20
21085;DHT22;34247;50.064;19.970;2023-02-15T01:21:24;21.60;26.10
21085;DHT22;34247;50.064;19.970;2023-02-15T01:22:28;21.60;26.10
21085;DHT22;34247;50.064;19.970;2023-02-15T01:23:33;21.60;26.10
21085;DHT22;34247;50.064;19.970;2023-02-15T01:24:37;21.60;26.10
21085;DHT22;34247;50.064;19.970;2023-02-15T01:25:41;21.60;26.10
21085;DHT22;34247;50.064;19.970;2023-02-15T01:26:45;21.60;26.10
21085;DHT22;34247;50.064;19.970;2023-02-15T01:27:49;21.60;26.10
21085;DHT22;34247;50.064;19.970;2023-02-15T01:28:53;21.60;26.10
21085;DHT22;34247;50.064;19.970;2023-02-15T01:29:56;21.60;26.10
21085;DHT22;34247;50.064;19.970;2023-02-15T01:31:08;21.60;26.10
21085;DHT22;34247;50.064;19.970;2023-02-15T01:32:14;21.60;26.10
21085;DHT22;34247;50.064;19.970;2023-02-15T01:33:18;21.60;26.10
21085;DHT22;34247;50.064;19.970;2023-02-15T01:34:22;21.60;26.10
21085;DHT22;34247;50.064;19.970;2023-02-15T01:35:27;21.60;26.10
21085;DHT22;34247;50.064;19.970;2023-02-15T01:36:33;21.60;26.10
21085;DHT22;34247;50.064;19.970;2023-02-15T01:37:37;21.60;26.10
21085;DHT22;34247;50.064;19.970;2023-02-15T01:38:41;21.60;26.10
21085;DHT22;34247;50.064;19.970;2023-02-15T01:39:47;21.60;26.10
21085;DHT22;34247;50.064;19.970;2023-02-15T01:40:52;21.60;26.10
21085;DHT22;34247;50.064;19.970;2023-02-15T01:42:28;21.60;26.70
21085;DHT22;34247;50.064;19.970;2023-02-15T01:43:45;21.60;26.20
21085;DHT22;34247;50.064;19.970;2023-02-15T01:44:55;21.60;26.20
21085;DHT22;34247;50.064;19.970;2023-02-15T01:46:01;21.60;26.20
21085;DHT22;34247;50.064;19.970;2023-02-15T01:47:11;21.60;26.20
21085;DHT22;34247;50.064;19.970;2023-02-15T01:48:24;21.60;26.20
21085;DHT22;34247;50.064;19.970;2023-02-15T01:49:31;21.60;26.20
21085;DHT22;34247;50.064;19.970;2023-02-15T01:50:38;21.60;26.20
21085;DHT22;34247;50.064;19.970;2023-02-15T01:51:46;21.60;26.20
21085;DHT22;34247;50.064;19.970;2023-02-15T01:54:32;21.60;26.30
21085;DHT22;34247;50.064;19.970;2023-02-15T01:55:52;21.60;26.30
21085;DHT22;34247;50.064;19.970;2023-02-15T01:57:13;21.60;26.30
21085;DHT22;34247;50.064;19.970;2023-02-15T01:58:22;21.60;26.20
21085;DHT22;34247;50.064;19.970;2023-02-15T01:59:28;21.60;26.20
21085;DHT22;34247;50.064;19.970;2023-02-15T02:00:39;21.60;26.20
21085;DHT22;34247;50.064;19.970;2023-02-15T02:01:47;21.60;26.20
21085;DHT22;34247;50.064;19.970;2023-02-15T02:02:55;21.60;26.20
21085;DHT22;34247;50.064;19.970;2023-02-15T02:04:09;21.60;26.20
21085;DHT22;34247;50.064;19.970;2023-02-15T02:05:19;21.60;26.20
21085;DHT22;34247;50.064;19.970;2023-02-15T02:06:24;21.60;26.20
21085;DHT22;34247;50.064;19.970;2023-02-15T02:07:33;21.60;26.20
21085;DHT22;34247;50.064;19.970;2023-02-15T02:08:42;21.60;26.30
21085;DHT22;34247;50.064;19.970;2023-02-15T02:09:48;21.60;26.20
21085;DHT22;34247;50.064;19.970;2023-02-15T02:10:52;21.60;26.20
21085;DHT22;34247;50.064;19.970;2023-02-15T02:11:56;21.60;26.20
21085;DHT22;34247;50.064;19.970;2023-02-15T02:13:03;21.60;26.20
21085;DHT22;34247;50.064;19.970;2023-02-15T02:14:10;21.60;26.20
21085;DHT22;34247;50.064;19.970;2023-02-15T02:15:14;21.60;26.20
21085;DHT22;34247;50.064;19.970;2023-02-15T02:21:53;21.60;26.20
21085;DHT22;34247;50.064;19.970;2023-02-15T02:30:06;21.50;26.20
21085;DHT22;34247;50.064;19.970;2023-02-15T02:36:52;21.50;26.20
21085;DHT22;34247;50.064;19.970;2023-02-15T02:38:38;21.50;26.20
21085;DHT22;34247;50.064;19.970;2023-02-15T02:42:10;21.50;26.20
21085;DHT22;34247;50.064;19.970;2023-02-15T02:45:09;21.50;26.30
21085;DHT22;34247;50.064;19.970;2023-02-15T02:47:04;21.50;26.30
21085;DHT22;34247;50.064;19.970;2023-02-15T02:48:20;21.50;26.30
21085;DHT22;34247;50.064;19.970;2023-02-15T02:49:43;21.50;26.40
21085;DHT22;34247;50.064;19.970;2023-02-15T02:50:54;21.50;26.40
21085;DHT22;34247;50.064;19.970;2023-02-15T02:52:46;21.50;26.40
21085;DHT22;34247;50.064;19.970;2023-02-15T02:53:54;21.50;26.40
21085;DHT22;34247;50.064;19.970;2023-02-15T02:56:45;21.40;26.30
21085;DHT22;34247;50.064;19.970;2023-02-15T02:59:20;21.40;26.40
21085;DHT22;34247;50.064;19.970;2023-02-15T03:00:31;21.40;26.90
21085;DHT22;34247;50.064;19.970;2023-02-15T03:04:43;21.40;26.40
21085;DHT22;34247;50.064;19.970;2023-02-15T03:05:54;21.40;26.50
21085;DHT22;34247;50.064;19.970;2023-02-15T03:07:12;21.40;26.40
21085;DHT22;34247;50.064;19.970;2023-02-15T03:08:35;21.40;26.50
21085;DHT22;34247;50.064;19.970;2023-02-15T03:09:54;21.40;26.50
21085;DHT22;34247;50.064;19.970;2023-02-15T03:11:03;21.40;26.50
21085;DHT22;34247;50.064;19.970;2023-02-15T03:12:18;21.40;26.50
21085;DHT22;34247;50.064;19.970;2023-02-15T03:13:37;21.40;26.50
21085;DHT22;34247;50.064;19.970;2023-02-15T03:14:46;21.40;26.50
21085;DHT22;34247;50.064;19.970;2023-02-15T03:15:56;21.40;26.50
21085;DHT22;34247;50.064;19.970;2023-02-15T03:17:22;21.40;26.50
21085;DHT22;34247;50.064;19.970;2023-02-15T03:18:38;21.40;26.50
21085;DHT22;34247;50.064;19.970;2023-02-15T03:20:03;21.40;26.50
21085;DHT22;34247;50.064;19.970;2023-02-15T03:21:15;21.40;26.50
21085;DHT22;34247;50.064;19.970;2023-02-15T03:22:30;21.40;26.60
21085;DHT22;34247;50.064;19.970;2023-02-15T03:23:41;21.40;26.60
21085;DHT22;34247;50.064;19.970;2023-02-15T03:24:59;21.40;26.50
21085;DHT22;34247;50.064;19.970;2023-02-15T03:26:11;21.40;26.50
21085;DHT22;34247;50.064;19.970;2023-02-15T03:27:21;21.40;26.50
21085;DHT22;34247;50.064;19.970;2023-02-15T03:28:39;21.30;26.50
21085;DHT22;34247;50.064;19.970;2023-02-15T03:29:51;21.40;26.60
21085;DHT22;34247;50.064;19.970;2023-02-15T03:31:05;21.40;26.50
21085;DHT22;34247;50.064;19.970;2023-02-15T03:32:21;21.40;26.50
21085;DHT22;34247;50.064;19.970;2023-02-15T03:33:29;21.30;26.50
21085;DHT22;34247;50.064;19.970;2023-02-15T03:34:33;21.30;26.50
21085;DHT22;34247;50.064;19.970;2023-02-15T03:37:28;21.30;26.60
21085;DHT22;34247;50.064;19.970;2023-02-15T03:38:40;21.30;26.60
21085;DHT22;34247;50.064;19.970;2023-02-15T03:39:52;21.30;26.60
21085;DHT22;34247;50.064;19.970;2023-02-15T03:41:30;21.30;26.70
21085;DHT22;34247;50.064;19.970;2023-02-15T03:42:39;21.30;26.60
21085;DHT22;34247;50.064;19.970;2023-02-15T03:45:10;21.30;26.60
21085;DHT22;34247;50.064;19.970;2023-02-15T03:46:42;21.30;26.60
21085;DHT22;34247;50.064;19.970;2023-02-15T03:48:00;21.30;26.60
21085;DHT22;34247;50.064;19.970;2023-02-15T03:49:24;21.30;26.60
21085;DHT22;34247;50.064;19.970;2023-02-15T03:50:36;21.30;26.60
21085;DHT22;34247;50.064;19.970;2023-02-15T03:52:03;21.30;26.60
21085;DHT22;34247;50.064;19.970;2023-02-15T03:53:15;21.20;26.60
21085;DHT22;34247;50.064;19.970;2023-02-15T03:54:28;21.30;26.70
21085;DHT22;34247;50.064;19.970;2023-02-15T03:55:52;21.20;26.60
21085;DHT22;34247;50.064;19.970;2023-02-15T03:56:57;21.20;26.60
21085;DHT22;34247;50.064;19.970;2023-02-15T03:58:33;21.20;26.70
21085;DHT22;34247;50.064;19.970;2023-02-15T03:59:57;21.20;26.60
21085;DHT22;34247;50.064;19.970;2023-02-15T04:01:38;21.20;26.70
21085;DHT22;34247;50.064;19.970;2023-02-15T04:04:21;21.20;26.70
21085;DHT22;34247;50.064;19.970;2023-02-15T04:05:28;21.20;26.70
21085;DHT22;34247;50.064;19.970;2023-02-15T04:06:31;21.10;27.00
21085;DHT22;34247;50.064;19.970;2023-02-15T04:07:35;21.20;26.80
21085;DHT22;34247;50.064;19.970;2023-02-15T04:08:40;21.10;26.80
21085;DHT22;34247;50.064;19.970;2023-02-15T04:10:12;21.10;26.70
21085;DHT22;34247;50.064;19.970;2023-02-15T04:11:35;21.10;26.70
21085;DHT22;34247;50.064;19.970;2023-02-15T04:12:39;21.10;26.80
21085;DHT22;34247;50.064;19.970;2023-02-15T04:13:43;21.10;26.80
21085;DHT22;34247;50.064;19.970;2023-02-15T04:14:48;21.10;26.90
21085;DHT22;34247;50.064;19.970;2023-02-15T04:16:11;21.10;26.90
21085;DHT22;34247;50.064;19.970;2023-02-15T04:17:15;21.10;26.80
21085;DHT22;34247;50.064;19.970;2023-02-15T04:18:21;21.10;26.80
21085;DHT22;34247;50.064;19.970;2023-02-15T04:19:25;21.10;26.80
21085;DHT22;34247;50.064;19.970;2023-02-15T04:20:50;21.10;26.80
21085;DHT22;34247;50.064;19.970;2023-02-15T04:22:14;21.10;26.80
21085;DHT22;34247;50.064;19.970;2023-02-15T04:23:37;21.10;26.80
21085;DHT22;34247;50.064;19.970;2023-02-15T04:24:59;21.10;26.90
21085;DHT22;34247;50.064;19.970;2023-02-15T04:26:19;21.20;26.90
21085;DHT22;34247;50.064;19.970;2023-02-15T04:27:23;21.10;26.80
21085;DHT22;34247;50.064;19.970;2023-02-15T04:28:27;21.10;26.80
21085;DHT22;34247;50.064;19.970;2023-02-15T04:29:32;21.10;26.80
21085;DHT22;34247;50.064;19.970;2023-02-15T04:30:36;21.20;26.80
21085;DHT22;34247;50.064;19.970;2023-02-15T04:31:40;21.10;26.70
21085;DHT22;34247;50.064;19.970;2023-02-15T04:32:45;21.10;26.80
21085;DHT22;34247;50.064;19.970;2023-02-15T04:33:49;21.10;26.80
21085;DHT22;34247;50.064;19.970;2023-02-15T04:34:53;21.20;26.80
21085;DHT22;34247;50.064;19.970;2023-02-15T04:35:58;21.10;26.80
21085;DHT22;34247;50.064;19.970;2023-02-15T04:37:03;21.10;26.70
21085;DHT22;34247;50.064;19.970;2023-02-15T04:38:10;21.10;26.80
21085;DHT22;34247;50.064;19.970;2023-02-15T04:39:15;21.10;26.70
21085;DHT22;34247;50.064;19.970;2023-02-15T04:40:20;21.10;26.70
21085;DHT22;34247;50.064;19.970;2023-02-15T04:41:24;21.10;26.80
21085;DHT22;34247;50.064;19.970;2023-02-15T04:42:28;21.10;26.80
21085;DHT22;34247;50.064;19.970;2023-02-15T04:43:32;21.10;26.80
21085;DHT22;34247;50.064;19.970;2023-02-15T04:44:39;21.10;26.90
21085;DHT22;34247;50.064;19.970;2023-02-15T04:45:48;21.10;26.90
21085;DHT22;34247;50.064;19.970;2023-02-15T04:46:56;21.10;26.90
21085;DHT22;34247;50.064;19.970;2023-02-15T04:48:00;21.00;26.90
21085;DHT22;34247;50.064;19.970;2023-02-15T04:49:08;21.00;26.90
21085;DHT22;34247;50.064;19.970;2023-02-15T04:50:13;21.00;26.90
21085;DHT22;34247;50.064;19.970;2023-02-15T04:51:16;21.10;26.90
21085;DHT22;34247;50.064;19.970;2023-02-15T04:52:20;21.10;26.90
21085;DHT22;34247;50.064;19.970;2023-02-15T04:53:24;21.10;26.90
21085;DHT22;34247;50.064;19.970;2023-02-15T04:54:28;21.10;26.90
21085;DHT22;34247;50.064;19.970;2023-02-15T04:55:33;21.00;26.80
21085;DHT22;34247;50.064;19.970;2023-02-15T04:56:36;21.00;26.90
21085;DHT22;34247;50.064;19.970;2023-02-15T04:57:46;21.00;26.90
21085;DHT22;34247;50.064;19.970;2023-02-15T04:58:49;21.00;26.90
21085;DHT22;34247;50.064;19.970;2023-02-15T04:59:53;21.00;26.90
21085;DHT22;34247;50.064;19.970;2023-02-15T05:00:57;21.00;26.90
21085;DHT22;34247;50.064;19.970;2023-02-15T05:02:02;21.00;27.00
21085;DHT22;34247;50.064;19.970;2023-02-15T05:03:06;21.00;27.00
21085;DHT22;34247;50.064;19.970;2023-02-15T05:04:10;21.00;27.00
21085;DHT22;34247;50.064;19.970;2023-02-15T05:05:14;21.00;26.90
21085;DHT22;34247;50.064;19.970;2023-02-15T05:06:18;21.00;26.90
21085;DHT22;34247;50.064;19.970;2023-02-15T05:07:22;21.00;26.90
21085;DHT22;34247;50.064;19.970;2023-02-15T05:08:26;21.10;26.90
21085;DHT22;34247;50.064;19.970;2023-02-15T05:09:29;21.10;26.90
21085;DHT22;34247;50.064;19.970;2023-02-15T05:10:33;21.10;26.90
21085;DHT22;34247;50.064;19.970;2023-02-15T05:11:37;21.00;26.80
21085;DHT22;34247;50.064;19.970;2023-02-15T05:12:41;21.00;26.80
21085;DHT22;34247;50.064;19.970;2023-02-15T05:13:44;21.00;26.90
21085;DHT22;34247;50.064;19.970;2023-02-15T05:14:48;21.00;26.90
21085;DHT22;34247;50.064;19.970;2023-02-15T05:15:53;21.00;27.00
21085;DHT22;34247;50.064;19.970;2023-02-15T05:16:56;21.00;26.90
21085;DHT22;34247;50.064;19.970;2023-02-15T05:18:01;21.00;26.90
21085;DHT22;34247;50.064;19.970;2023-02-15T05:19:07;21.00;26.80
21085;DHT22;34247;50.064;19.970;2023-02-15T05:20:11;21.00;26.90
21085;DHT22;34247;50.064;19.970;2023-02-15T05:21:15;21.00;27.10
21085;DHT22;34247;50.064;19.970;2023-02-15T05:22:19;21.00;27.00
21085;DHT22;34247;50.064;19.970;2023-02-15T05:23:23;21.00;27.00
21085;DHT22;34247;50.064;19.970;2023-02-15T05:24:27;20.90;26.90
21085;DHT22;34247;50.064;19.970;2023-02-15T05:25:50;20.90;27.00
21085;DHT22;34247;50.064;19.970;2023-02-15T05:27:15;21.00;27.10
21085;DHT22;34247;50.064;19.970;2023-02-15T05:28:38;20.90;27.00
21085;DHT22;34247;50.064;19.970;2023-02-15T05:29:42;21.00;27.00
21085;DHT22;34247;50.064;19.970;2023-02-15T05:30:50;20.90;27.00
21085;DHT22;34247;50.064;19.970;2023-02-15T05:32:10;20.90;27.00
21085;DHT22;34247;50.064;19.970;2023-02-15T05:33:17;20.90;27.00
21085;DHT22;34247;50.064;19.970;2023-02-15T05:34:21;20.90;27.10
21085;DHT22;34247;50.064;19.970;2023-02-15T05:35:25;20.90;27.00
21085;DHT22;34247;50.064;19.970;2023-02-15T05:36:29;20.90;27.00
21085;DHT22;34247;50.064;19.970;2023-02-15T05:37:33;20.90;27.10
21085;DHT22;34247;50.064;19.970;2023-02-15T05:38:37;20.90;27.10
21085;DHT22;34247;50.064;19.970;2023-02-15T05:39:41;21.00;27.10
21085;DHT22;34247;50.064;19.970;2023-02-15T05:40:47;21.00;27.10
21085;DHT22;34247;50.064;19.970;2023-02-15T05:41:52;21.00;27.00
21085;DHT22;34247;50.064;19.970;2023-02-15T05:42:57;21.00;27.00
21085;DHT22;34247;50.064;19.970;2023-02-15T05:44:01;20.90;27.00
21085;DHT22;34247;50.064;19.970;2023-02-15T05:45:14;20.90;27.00
21085;DHT22;34247;50.064;19.970;2023-02-15T05:46:19;20.90;27.10
21085;DHT22;34247;50.064;19.970;2023-02-15T05:47:23;20.90;27.00
21085;DHT22;34247;50.064;19.970;2023-02-15T05:48:27;21.00;27.10
21085;DHT22;34247;50.064;19.970;2023-02-15T05:49:32;21.00;27.00
21085;DHT22;34247;50.064;19.970;2023-02-15T05:50:36;20.90;27.00
21085;DHT22;34247;50.064;19.970;2023-02-15T05:51:40;20.90;27.10
21085;DHT22;34247;50.064;19.970;2023-02-15T05:52:50;20.90;27.10
21085;DHT22;34247;50.064;19.970;2023-02-15T05:53:54;20.90;27.20
21085;DHT22;34247;50.064;19.970;2023-02-15T05:54:58;20.90;27.10
21085;DHT22;34247;50.064;19.970;2023-02-15T05:56:09;20.90;27.10
21085;DHT22;34247;50.064;19.970;2023-02-15T05:57:14;20.90;27.10
21085;DHT22;34247;50.064;19.970;2023-02-15T05:58:18;20.90;27.20
21085;DHT22;34247;50.064;19.970;2023-02-15T05:59:23;20.90;27.20
21085;DHT22;34247;50.064;19.970;2023-02-15T06:00:27;20.90;27.20
21085;DHT22;34247;50.064;19.970;2023-02-15T06:01:30;20.90;27.20
21085;DHT22;34247;50.064;19.970;2023-02-15T06:02:35;20.90;27.20
21085;DHT22;34247;50.064;19.970;2023-02-15T06:03:39;20.90;27.20
21085;DHT22;34247;50.064;19.970;2023-02-15T06:04:46;20.90;27.10
21085;DHT22;34247;50.064;19.970;2023-02-15T06:05:52;20.90;27.10
21085;DHT22;34247;50.064;19.970;2023-02-15T06:06:56;20.90;27.10
21085;DHT22;34247;50.064;19.970;2023-02-15T06:07:59;20.90;27.10
21085;DHT22;34247;50.064;19.970;2023-02-15T06:09:03;20.90;27.10
21085;DHT22;34247;50.064;19.970;2023-02-15T06:10:11;20.90;27.10
21085;DHT22;34247;50.064;19.970;2023-02-15T06:11:15;20.90;27.00
21085;DHT22;34247;50.064;19.970;2023-02-15T06:12:19;20.90;27.00
21085;DHT22;34247;50.064;19.970;2023-02-15T06:13:25;20.90;27.10
21085;DHT22;34247;50.064;19.970;2023-02-15T06:14:29;20.90;27.10
21085;DHT22;34247;50.064;19.970;2023-02-15T06:15:33;20.90;27.00
21085;DHT22;34247;50.064;19.970;2023-02-15T06:16:37;21.00;27.00
21085;DHT22;34247;50.064;19.970;2023-02-15T06:17:41;21.00;27.10
21085;DHT22;34247;50.064;19.970;2023-02-15T06:18:47;21.00;27.00
21085;DHT22;34247;50.064;19.970;2023-02-15T06:19:50;20.90;27.00
21085;DHT22;34247;50.064;19.970;2023-02-15T06:20:54;20.90;27.00
21085;DHT22;34247;50.064;19.970;2023-02-15T06:21:58;20.90;27.10
21085;DHT22;34247;50.064;19.970;2023-02-15T06:23:11;20.90;27.10
21085;DHT22;34247;50.064;19.970;2023-02-15T06:24:15;20.90;27.10
21085;DHT22;34247;50.064;19.970;2023-02-15T06:25:19;20.90;27.10
21085;DHT22;34247;50.064;19.970;2023-02-15T06:26:24;20.90;27.10
21085;DHT22;34247;50.064;19.970;2023-02-15T06:27:31;20.90;27.00
21085;DHT22;34247;50.064;19.970;2023-02-15T06:28:35;21.00;27.10
21085;DHT22;34247;50.064;19.970;2023-02-15T06:29:40;21.00;27.00
21085;DHT22;34247;50.064;19.970;2023-02-15T06:30:44;20.90;27.00
21085;DHT22;34247;50.064;19.970;2023-02-15T06:31:51;20.90;27.00
21085;DHT22;34247;50.064;19.970;2023-02-15T06:32:59;21.00;27.10
21085;DHT22;34247;50.064;19.970;2023-02-15T06:34:03;20.90;27.00
21085;DHT22;34247;50.064;19.970;2023-02-15T06:35:09;21.00;27.00
21085;DHT22;34247;50.064;19.970;2023-02-15T06:36:16;20.90;27.00
21085;DHT22;34247;50.064;19.970;2023-02-15T06:37:19;20.90;27.00
21085;DHT22;34247;50.064;19.970;2023-02-15T06:38:26;20.90;27.00
21085;DHT22;34247;50.064;19.970;2023-02-15T06:39:30;20.90;27.00
21085;DHT22;34247;50.064;19.970;2023-02-15T06:40:35;20.90;27.00
21085;DHT22;34247;50.064;19.970;2023-02-15T06:41:40;20.90;27.10
21085;DHT22;34247;50.064;19.970;2023-02-15T06:42:44;20.90;27.10
21085;DHT22;34247;50.064;19.970;2023-02-15T06:43:53;20.80;27.10
21085;DHT22;34247;50.064;19.970;2023-02-15T06:44:56;20.80;27.10
21085;DHT22;34247;50.064;19.970;2023-02-15T06:46:00;20.80;27.10
21085;DHT22;34247;50.064;19.970;2023-02-15T06:47:08;20.80;27.20
21085;DHT22;34247;50.064;19.970;2023-02-15T06:48:14;20.80;27.20
21085;DHT22;34247;50.064;19.970;2023-02-15T06:49:18;20.90;27.30
21085;DHT22;34247;50.064;19.970;2023-02-15T06:50:22;20.90;27.20
21085;DHT22;34247;50.064;19.970;2023-02-15T06:51:27;20.90;27.20
21085;DHT22;34247;50.064;19.970;2023-02-15T06:52:30;20.90;27.10
21085;DHT22;34247;50.064;19.970;2023-02-15T06:53:34;20.90;27.10
21085;DHT22;34247;50.064;19.970;2023-02-15T06:54:39;20.80;27.10
21085;DHT22;34247;50.064;19.970;2023-02-15T06:55:43;20.80;27.10
21085;DHT22;34247;50.064;19.970;2023-02-15T06:56:54;20.80;27.20
21085;DHT22;34247;50.064;19.970;2023-02-15T06:58:04;20.90;27.30
21085;DHT22;34247;50.064;19.970;2023-02-15T06:59:12;20.80;27.10
21085;DHT22;34247;50.064;19.970;2023-02-15T07:00:16;20.80;27.20
21085;DHT22;34247;50.064;19.970;2023-02-15T07:01:21;20.80;27.20
21085;DHT22;34247;50.064;19.970;2023-02-15T07:02:25;20.80;27.20
21085;DHT22;34247;50.064;19.970;2023-02-15T07:03:30;20.80;27.20
21085;DHT22;34247;50.064;19.970;2023-02-15T07:04:34;20.80;27.20
21085;DHT22;34247;50.064;19.970;2023-02-15T07:05:39;20.80;27.30
21085;DHT22;34247;50.064;19.970;2023-02-15T07:06:43;20.80;27.30
21085;DHT22;34247;50.064;19.970;2023-02-15T07:07:47;20.80;27.30
21085;DHT22;34247;50.064;19.970;2023-02-15T07:08:51;20.80;27.20
21085;DHT22;34247;50.064;19.970;2023-02-15T07:09:55;20.80;27.30
21085;DHT22;34247;50.064;19.970;2023-02-15T07:10:59;20.80;27.30
21085;DHT22;34247;50.064;19.970;2023-02-15T07:12:22;20.80;27.30
21085;DHT22;34247;50.064;19.970;2023-02-15T07:13:46;20.80;27.40
21085;DHT22;34247;50.064;19.970;2023-02-15T07:14:51;20.80;27.30
21085;DHT22;34247;50.064;19.970;2023-02-15T07:15:55;20.80;27.30
21085;DHT22;34247;50.064;19.970;2023-02-15T07:16:59;20.80;27.30
21085;DHT22;34247;50.064;19.970;2023-02-15T07:18:02;20.80;27.80
21085;DHT22;34247;50.064;19.970;2023-02-15T07:19:09;20.80;27.20
21085;DHT22;34247;50.064;19.970;2023-02-15T07:20:16;20.90;27.30
21085;DHT22;34247;50.064;19.970;2023-02-15T07:21:21;20.90;27.20
21085;DHT22;34247;50.064;19.970;2023-02-15T07:22:26;20.90;27.20
21085;DHT22;34247;50.064;19.970;2023-02-15T07:23:30;20.90;27.20
21085;DHT22;34247;50.064;19.970;2023-02-15T07:24:34;20.90;27.10
21085;DHT22;34247;50.064;19.970;2023-02-15T07:25:37;20.90;27.10
21085;DHT22;34247;50.064;19.970;2023-02-15T07:26:41;20.90;27.10
21085;DHT22;34247;50.064;19.970;2023-02-15T07:27:45;20.90;27.10
21085;DHT22;34247;50.064;19.970;2023-02-15T07:28:50;20.90;27.10
21085;DHT22;34247;50.064;19.970;2023-02-15T07:29:54;20.90;27.10
21085;DHT22;34247;50.064;19.970;2023-02-15T07:30:57;20.90;27.10
21085;DHT22;34247;50.064;19.970;2023-02-15T07:32:01;20.90;27.20
21085;DHT22;34247;50.064;19.970;2023-02-15T07:33:07;20.90;27.20
21085;DHT22;34247;50.064;19.970;2023-02-15T07:34:26;20.90;27.20
21085;DHT22;34247;50.064;19.970;2023-02-15T07:35:30;20.90;27.30
21085;DHT22;34247;50.064;19.970;2023-02-15T07:36:35;20.90;27.30
21085;DHT22;34247;50.064;19.970;2023-02-15T07:37:38;20.90;27.20
21085;DHT22;34247;50.064;19.970;2023-02-15T07:38:42;20.90;27.20